Santa Monica, Brazil
Current Conditions -  °F | °C
As of 2:00 PM on Friday 28 Nov 2014 (Local Time) from SBMG Reporting Station
Few Clouds Few Clouds  
Wind Chill: 84°   Ceiling: Unl
Heat Index: 86°   Visibility: 6mi
Dew Point: 66°   Wind: 6mph
Humidity: 55%   Direction: 80°E
Pressure: 29.97"   Gusts: NA
Location:  23.11°S, 53.11°W
Report Text: SBMG 281600Z 08005KT 9999 FEW040 29/19 Q1015
Loading
Personal Weather Stations






























Interactive Weather Map New forecast layout! Learn more

10-Day Weather Forecast

Advertisements
Track Severe Weather on mobile